PACM

Scammon Bay Airport

Airport
ICAO code
PACM
IATA Code
SCM
Summary
ICAO Region
NAM
ICAO Territory
Location

, Alaska

Serving
Scammon Bay
Elevation
14 ft
Coordinates
61° 50' 43" N , 165° 34' 17" W
Metar
PACM 192056Z AUTO 06004KT 10SM -RA FEW016 BKN029 OVC070 12/09 A2993 RMK AO2 RAB40 SLP133 P0000 60000 T01170094 53005

Runways

Designator Length Width Surface Rops
10/28 914 23 GVL No/No
04W/22W 3048 152 WATER-E No/No

Airport map

Aerial View

SKYbrary Partners:

Safety knowledge contributed by: